createdAt,value
2019-01-21T00:00:33.418Z,18.47
2019-01-21T00:03:01.469Z,19.17
2019-01-21T00:05:30.072Z,20.53
2019-01-21T00:07:58.463Z,25.80
2019-01-21T00:10:26.496Z,23.23
2019-01-21T00:12:54.530Z,22.13
2019-01-21T00:15:22.525Z,20.73
2019-01-21T00:17:50.470Z,26.00
2019-01-21T00:20:18.514Z,21.17
2019-01-21T00:22:46.241Z,21.57
2019-01-21T00:25:14.194Z,22.87
2019-01-21T00:27:41.924Z,26.53
2019-01-21T00:30:10.326Z,18.20
2019-01-21T00:32:38.400Z,19.07
2019-01-21T00:35:06.436Z,19.77
2019-01-21T00:37:34.135Z,17.63
2019-01-21T00:40:02.103Z,22.13
2019-01-21T00:42:30.137Z,31.27
2019-01-21T00:44:57.895Z,29.03
2019-01-21T00:47:29.812Z,26.03
2019-01-21T00:49:53.600Z,20.87
2019-01-21T00:52:22.007Z,20.43
2019-01-21T00:54:51.077Z,19.83
2019-01-21T00:57:17.970Z,19.40
2019-01-21T00:59:46.329Z,16.10
2019-01-21T01:02:14.405Z,22.50
2019-01-21T01:04:42.479Z,20.30
2019-01-21T01:07:10.489Z,20.50
2019-01-21T01:09:38.487Z,21.50
2019-01-21T01:12:06.180Z,20.67
2019-01-21T01:14:34.460Z,19.43
2019-01-21T01:17:02.145Z,18.90
2019-01-21T01:19:29.588Z,19.10
2019-01-21T01:21:57.606Z,22.10
2019-01-21T01:24:25.577Z,19.50
2019-01-21T01:26:53.521Z,22.20
2019-01-21T01:29:21.530Z,20.23
2019-01-21T01:31:49.497Z,24.63
2019-01-21T01:34:17.996Z,18.03
2019-01-21T01:36:46.273Z,20.43
2019-01-21T01:39:14.286Z,20.00
2019-01-21T01:41:42.255Z,22.30
2019-01-21T01:44:11.187Z,19.60
2019-01-21T01:46:39.181Z,19.10
2019-01-21T01:49:07.012Z,19.83
2019-01-21T01:51:36.758Z,18.50
2019-01-21T01:54:05.632Z,20.03
2019-01-21T01:56:34.101Z,20.80
2019-01-21T01:59:03.318Z,16.73
2019-01-21T02:01:31.673Z,20.43
2019-01-21T02:04:01.723Z,16.23
2019-01-21T02:06:32.247Z,19.23
2019-01-21T02:08:59.966Z,20.57
2019-01-21T02:11:39.664Z,18.10
2019-01-21T02:14:08.016Z,17.50
2019-01-21T02:16:35.693Z,16.77
2019-01-21T02:19:04.062Z,15.53
2019-01-21T02:21:32.073Z,17.17
2019-01-21T02:24:04.602Z,20.70
2019-01-21T02:26:32.579Z,16.87
2019-01-21T02:29:03.013Z,17.07
2019-01-21T02:31:37.242Z,17.37
2019-01-21T02:34:11.358Z,17.60
2019-01-21T02:36:57.848Z,21.33
2019-01-21T02:39:48.273Z,18.57
2019-01-21T02:42:19.723Z,20.33
2019-01-21T02:45:08.887Z,20.03
2019-01-21T02:48:02.306Z,16.63
2019-01-21T02:50:44.596Z,15.80
2019-01-21T02:53:26.135Z,21.10
2019-01-21T02:56:16.236Z,22.77
2019-01-21T02:59:02.381Z,19.90
2019-01-21T03:01:55.465Z,18.37
2019-01-21T03:04:36.292Z,18.17
2019-01-21T03:07:10.626Z,21.73
2019-01-21T03:10:04.240Z,21.40
2019-01-21T03:12:57.701Z,20.17
2019-01-21T03:15:48.652Z,22.20
2019-01-21T03:18:36.713Z,25.87
2019-01-21T03:21:42.584Z,22.20
2019-01-21T03:24:22.062Z,24.27
2019-01-21T03:26:58.959Z,20.23
2019-01-21T03:29:43.057Z,22.40
2019-01-21T03:32:23.423Z,20.97
2019-01-21T03:35:05.122Z,27.97
2019-01-21T03:37:50.887Z,54.45
2019-01-21T03:40:21.495Z,36.37
2019-01-21T03:42:55.849Z,27.07
2019-01-21T03:45:43.144Z,31.30
2019-01-21T03:48:16.974Z,25.97
2019-01-21T03:51:01.143Z,28.27
2019-01-21T03:53:48.680Z,23.03
2019-01-21T03:56:35.865Z,23.27
2019-01-21T03:59:12.883Z,23.57
2019-01-21T04:02:08.734Z,24.40
2019-01-21T04:04:49.716Z,46.00
2019-01-21T04:07:36.584Z,29.87
2019-01-21T04:10:10.715Z,29.43
2019-01-21T04:12:56.327Z,29.33
2019-01-21T04:15:39.668Z,30.20
2019-01-21T04:18:24.340Z,21.60
2019-01-21T04:21:04.583Z,25.37
2019-01-21T04:23:41.061Z,21.73
2019-01-21T04:26:18.289Z,25.93
2019-01-21T04:28:49.247Z,24.47
2019-01-21T04:31:42.555Z,19.50
2019-01-21T04:34:13.479Z,19.83
2019-01-21T04:37:01.419Z,21.13
2019-01-21T04:40:06.977Z,20.30
2019-01-21T04:42:53.087Z,18.23
2019-01-21T04:45:24.298Z,17.10
2019-01-21T04:48:11.835Z,23.77
2019-01-21T04:50:47.853Z,21.30
2019-01-21T04:53:30.226Z,21.60
2019-01-21T04:56:36.467Z,23.70
2019-01-21T04:59:19.689Z,23.03
2019-01-21T05:02:19.026Z,24.30
2019-01-21T05:05:12.067Z,24.20
2019-01-21T05:08:02.245Z,24.10
2019-01-21T05:11:07.219Z,23.73
2019-01-21T05:13:48.593Z,28.20
2019-01-21T05:16:30.389Z,27.07
2019-01-21T05:19:16.129Z,27.77
2019-01-21T05:22:09.074Z,28.57
2019-01-21T05:25:02.196Z,23.50
2019-01-21T05:27:37.434Z,24.10
2019-01-21T05:30:18.603Z,25.67
2019-01-21T05:33:00.501Z,28.47
2019-01-21T05:35:53.862Z,23.53
2019-01-21T05:38:38.936Z,21.63
2019-01-21T05:41:32.005Z,24.00
2019-01-21T05:44:19.490Z,26.20
2019-01-21T05:47:12.427Z,29.30
2019-01-21T05:50:02.850Z,21.67
2019-01-21T05:52:48.958Z,26.97
2019-01-21T05:55:23.941Z,26.43
2019-01-21T05:57:57.738Z,38.17
2019-01-21T06:00:39.379Z,28.43
2019-01-21T06:03:14.413Z,31.03
2019-01-21T06:06:04.866Z,31.27
2019-01-21T06:08:50.653Z,31.03
2019-01-21T06:11:24.289Z,30.53
2019-01-21T06:14:14.120Z,30.53
2019-01-21T06:17:01.282Z,27.23
2019-01-21T06:19:35.238Z,27.30
2019-01-21T06:22:25.372Z,19.67
2019-01-21T06:25:11.333Z,20.50
2019-01-21T06:27:58.518Z,21.00
2019-01-21T06:30:29.982Z,21.87
2019-01-21T06:33:20.735Z,21.03
2019-01-21T06:36:04.478Z,23.20
2019-01-21T06:38:57.898Z,23.80
2019-01-21T06:41:53.858Z,19.33
2019-01-21T06:44:29.268Z,22.73
2019-01-21T06:47:16.229Z,32.90
2019-01-21T06:49:54.204Z,35.13
2019-01-21T06:52:36.428Z,30.27
2019-01-21T06:55:17.828Z,29.00
2019-01-21T06:58:03.829Z,28.23
2019-01-21T07:01:00.566Z,29.87
2019-01-21T07:03:41.884Z,27.43
2019-01-21T07:06:32.090Z,19.53
2019-01-21T07:09:21.768Z,20.90
2019-01-21T07:11:56.380Z,22.53
2019-01-21T07:14:46.872Z,22.23
2019-01-21T07:17:34.627Z,22.47
2019-01-21T07:20:24.503Z,26.00
2019-01-21T07:23:14.431Z,24.30
2019-01-21T07:25:45.690Z,23.03
2019-01-21T07:28:41.702Z,25.17
2019-01-21T07:31:31.630Z,22.50
2019-01-21T07:34:18.548Z,22.60
2019-01-21T07:37:14.776Z,21.90
2019-01-21T07:39:52.338Z,23.20
2019-01-21T07:42:45.510Z,32.43
2019-01-21T07:45:41.428Z,23.87
2019-01-21T07:48:25.326Z,25.30
2019-01-21T07:51:30.629Z,26.60
2019-01-21T07:54:20.283Z,30.17
2019-01-21T07:57:05.976Z,25.40
2019-01-21T07:59:47.467Z,21.53
2019-01-21T08:02:35.083Z,21.77
2019-01-21T08:05:16.548Z,21.63
2019-01-21T08:08:19.025Z,16.27
2019-01-21T08:10:53.370Z,19.63
2019-01-21T08:13:46.589Z,17.97
2019-01-21T08:16:28.505Z,24.13
2019-01-21T08:19:15.744Z,22.23
2019-01-21T08:21:48.427Z,17.97
2019-01-21T08:24:36.319Z,67.40
2019-01-21T08:27:12.626Z,22.70
2019-01-21T08:29:58.749Z,26.03
2019-01-21T08:32:48.866Z,99.87
2019-01-21T08:35:34.798Z,213.27
2019-01-21T08:38:23.262Z,138.00
2019-01-21T08:41:13.490Z,179.90
2019-01-21T08:44:12.717Z,77.17
2019-01-21T08:46:45.653Z,81.70
2019-01-21T08:49:17.544Z,168.20
2019-01-21T08:52:10.731Z,121.10
2019-01-21T08:55:09.804Z,302.43
2019-01-21T08:57:56.991Z,278.97
2019-01-21T09:00:59.632Z,395.47
2019-01-21T09:03:41.804Z,463.03
2019-01-21T09:06:41.248Z,483.40
2019-01-21T09:09:24.153Z,382.07
2019-01-21T09:12:11.293Z,209.10
2019-01-21T09:15:13.831Z,350.60
2019-01-21T09:18:04.179Z,394.93
2019-01-21T09:20:57.352Z,302.37
2019-01-21T09:23:38.788Z,159.80
2019-01-21T09:26:28.780Z,60.90
2019-01-21T09:29:21.726Z,16.67
2019-01-21T09:32:03.718Z,18.20
2019-01-21T09:35:03.221Z,18.33
2019-01-21T09:37:59.489Z,18.87
2019-01-21T09:40:45.463Z,20.33
2019-01-21T09:43:47.996Z,22.73
2019-01-21T09:46:35.116Z,24.10
2019-01-21T09:49:02.463Z,24.27
2019-01-21T09:51:30.380Z,20.37
2019-01-21T09:53:58.122Z,18.12
2019-01-21T09:56:28.473Z,24.52
2019-01-21T09:58:56.437Z,30.30
2019-01-21T10:01:24.732Z,25.90
2019-01-21T10:03:52.439Z,25.77
2019-01-21T10:06:22.272Z,27.23
2019-01-21T10:08:57.338Z,22.67
2019-01-21T10:11:47.275Z,19.90
2019-01-21T10:14:40.524Z,23.33
2019-01-21T10:17:27.969Z,19.25
2019-01-21T10:20:18.137Z,18.15
2019-01-21T10:22:51.282Z,20.52
2019-01-21T10:25:32.455Z,19.98
2019-01-21T10:28:19.396Z,18.60
2019-01-21T10:31:09.554Z,19.73
2019-01-21T10:34:08.738Z,21.08
2019-01-21T10:36:55.359Z,21.05
2019-01-21T10:39:48.151Z,20.58
2019-01-21T10:42:35.639Z,22.10
2019-01-21T10:45:23.255Z,21.80
2019-01-21T10:47:56.649Z,22.15
2019-01-21T10:50:33.849Z,21.58
2019-01-21T10:53:26.860Z,22.48
2019-01-21T10:56:07.734Z,22.13
2019-01-21T10:58:53.994Z,20.45
2019-01-21T11:01:44.528Z,21.37
2019-01-21T11:04:16.659Z,19.98
2019-01-21T11:07:12.956Z,23.80
2019-01-21T11:09:44.202Z,20.90
2019-01-21T11:12:31.334Z,23.80
2019-01-21T11:15:18.560Z,22.65
2019-01-21T11:17:55.469Z,19.67
2019-01-21T11:20:54.740Z,22.42
2019-01-21T11:23:40.953Z,19.10
2019-01-21T11:26:28.158Z,18.10
2019-01-21T11:29:21.155Z,21.97
2019-01-21T11:31:56.075Z,19.12
2019-01-21T11:34:43.239Z,27.77
2019-01-21T11:37:48.870Z,26.48
2019-01-21T11:40:39.059Z,22.17
2019-01-21T11:43:44.964Z,17.10
2019-01-21T11:46:30.835Z,17.80
2019-01-21T11:49:20.681Z,18.60
2019-01-21T11:52:04.843Z,20.08
2019-01-21T11:54:47.695Z,19.83
2019-01-21T11:57:23.885Z,18.70
2019-01-21T12:00:02.604Z,18.12
2019-01-21T12:02:49.501Z,17.77
2019-01-21T12:05:30.495Z,19.50
2019-01-21T12:08:08.824Z,16.67
2019-01-21T12:10:47.932Z,21.02
2019-01-21T12:13:25.000Z,17.77
2019-01-21T12:16:18.649Z,19.25
2019-01-21T12:19:20.913Z,19.30
2019-01-21T12:22:20.601Z,16.40
2019-01-21T12:24:55.529Z,19.92
2019-01-21T12:27:41.353Z,21.58
2019-01-21T12:30:12.489Z,23.75
2019-01-21T12:33:05.691Z,17.27
2019-01-21T12:35:40.198Z,19.62
2019-01-21T12:38:15.368Z,21.12
2019-01-21T12:40:50.674Z,19.23
2019-01-21T12:43:23.385Z,16.98
2019-01-21T12:45:57.417Z,18.52
2019-01-21T12:48:33.592Z,17.08
2019-01-21T12:51:24.413Z,18.27
2019-01-21T12:54:10.541Z,16.60
2019-01-21T12:56:56.535Z,21.33
2019-01-21T12:59:43.780Z,17.77
2019-01-21T13:02:24.018Z,15.90
2019-01-21T13:05:12.651Z,21.40
2019-01-21T13:08:05.225Z,17.05
2019-01-21T13:10:48.417Z,17.27
2019-01-21T13:13:50.655Z,16.42
2019-01-21T13:16:39.497Z,24.45
2019-01-21T13:19:21.519Z,15.98
2019-01-21T13:21:52.852Z,14.02
2019-01-21T13:24:29.393Z,14.20
2019-01-21T13:27:25.601Z,16.83
2019-01-21T13:30:15.623Z,16.77
2019-01-21T13:32:53.400Z,18.50
2019-01-21T13:35:24.531Z,15.50
2019-01-21T13:38:03.298Z,16.35
2019-01-21T13:40:56.518Z,20.58
2019-01-21T13:43:33.533Z,46.25
2019-01-21T13:46:15.599Z,36.78
2019-01-21T13:49:09.100Z,30.65
2019-01-21T13:51:51.543Z,25.37
2019-01-21T13:54:37.656Z,19.15
2019-01-21T13:57:17.949Z,24.05
2019-01-21T14:00:04.932Z,19.17
2019-01-21T14:02:38.651Z,22.42
2019-01-21T14:05:31.037Z,18.52
2019-01-21T14:08:03.264Z,24.27
2019-01-21T14:10:44.109Z,18.85
2019-01-21T14:13:31.347Z,17.62
2019-01-21T14:16:05.662Z,18.23
2019-01-21T14:19:02.063Z,14.90
2019-01-21T14:21:36.557Z,13.30
2019-01-21T14:24:15.019Z,15.27
2019-01-21T14:27:02.707Z,13.15
2019-01-21T14:29:51.955Z,13.25
2019-01-21T14:32:37.875Z,13.82
2019-01-21T14:35:19.002Z,13.15
2019-01-21T14:38:08.869Z,14.48
2019-01-21T14:40:46.797Z,14.35
2019-01-21T14:43:29.995Z,13.77
2019-01-21T14:46:12.544Z,14.32
2019-01-21T14:48:45.955Z,12.75
2019-01-21T14:51:45.224Z,13.65
2019-01-21T14:54:33.714Z,16.20
2019-01-21T14:57:05.151Z,13.55
2019-01-21T14:59:41.606Z,13.98
2019-01-21T15:02:13.839Z,13.35
2019-01-21T15:04:49.495Z,15.25
2019-01-21T15:07:36.365Z,14.57
2019-01-21T15:10:13.885Z,16.35
2019-01-21T15:12:46.413Z,16.10
2019-01-21T15:15:35.463Z,14.57
2019-01-21T15:18:21.204Z,14.32
2019-01-21T15:20:58.083Z,14.85
2019-01-21T15:23:39.612Z,16.23
2019-01-21T15:26:17.107Z,13.35
2019-01-21T15:28:49.980Z,17.08
2019-01-21T15:31:29.880Z,16.05
2019-01-21T15:34:00.593Z,13.98
2019-01-21T15:36:47.734Z,17.85
2019-01-21T15:39:40.900Z,16.92
2019-01-21T15:42:27.727Z,13.77
2019-01-21T15:45:02.623Z,14.25
2019-01-21T15:47:56.845Z,15.20
2019-01-21T15:50:45.496Z,14.73
2019-01-21T15:53:41.781Z,15.18
2019-01-21T15:56:16.901Z,13.23
2019-01-21T15:58:48.660Z,17.98
2019-01-21T16:01:24.396Z,15.88
2019-01-21T16:04:14.604Z,27.05
2019-01-21T16:06:48.622Z,17.97
2019-01-21T16:09:35.945Z,18.67
2019-01-21T16:12:21.203Z,17.60
2019-01-21T16:14:59.334Z,16.90
2019-01-21T16:17:52.556Z,16.80
2019-01-21T16:20:32.701Z,19.30
2019-01-21T16:23:19.241Z,18.62
2019-01-21T16:25:53.121Z,15.25
2019-01-21T16:28:43.000Z,38.50
2019-01-21T16:31:22.729Z,19.20
2019-01-21T16:34:08.358Z,20.20
2019-01-21T16:36:40.699Z,21.00
2019-01-21T16:39:39.538Z,19.42
2019-01-21T16:42:16.551Z,17.23
2019-01-21T16:44:45.440Z,18.92
2019-01-21T16:47:13.386Z,19.27
2019-01-21T16:49:41.257Z,26.93
2019-01-21T16:52:09.250Z,27.27
2019-01-21T16:54:37.185Z,26.43
2019-01-21T16:57:05.193Z,24.43
2019-01-21T16:59:33.120Z,23.23
2019-01-21T17:02:01.084Z,22.03
2019-01-21T17:04:28.815Z,20.27
2019-01-21T17:06:56.523Z,24.47
2019-01-21T17:09:25.031Z,30.80
2019-01-21T17:11:53.167Z,27.33
2019-01-21T17:14:20.848Z,28.07
2019-01-21T17:16:48.884Z,24.93
2019-01-21T17:19:16.855Z,28.83
2019-01-21T17:21:44.828Z,29.77
2019-01-21T17:24:12.510Z,37.47
2019-01-21T17:26:40.231Z,33.53
2019-01-21T17:29:07.928Z,28.93
2019-01-21T17:31:35.864Z,34.88
2019-01-21T17:34:03.365Z,29.08
2019-01-21T17:36:31.345Z,26.60
2019-01-21T17:38:59.072Z,25.43
2019-01-21T17:41:27.339Z,22.03
2019-01-21T17:43:55.295Z,30.27
2019-01-21T17:46:23.293Z,29.50
2019-01-21T17:48:51.263Z,20.07
2019-01-21T17:51:19.208Z,22.17
2019-01-21T17:53:51.259Z,24.87
2019-01-21T17:56:15.069Z,31.02
2019-01-21T17:58:42.735Z,29.10
2019-01-21T18:01:10.678Z,22.30
2019-01-21T18:03:38.703Z,23.63
2019-01-21T18:06:06.635Z,24.00
2019-01-21T18:08:34.607Z,24.10
2019-01-21T18:11:02.576Z,23.80
2019-01-21T18:13:31.103Z,23.23
2019-01-21T18:15:59.039Z,20.10
2019-01-21T18:18:27.371Z,21.95
2019-01-21T18:20:55.331Z,24.07
2019-01-21T18:23:23.298Z,23.23
2019-01-21T18:25:51.287Z,22.10
2019-01-21T18:28:19.741Z,20.67
2019-01-21T18:30:47.725Z,22.40
2019-01-21T18:33:15.719Z,25.00
2019-01-21T18:35:44.046Z,50.67
2019-01-21T18:38:11.645Z,71.27
2019-01-21T18:40:39.659Z,45.07
2019-01-21T18:43:07.331Z,24.90
2019-01-21T18:45:35.303Z,21.43
2019-01-21T18:48:03.317Z,22.23
2019-01-21T18:50:31.037Z,20.37
2019-01-21T18:52:58.969Z,21.87
2019-01-21T18:55:26.995Z,20.10
2019-01-21T18:57:56.023Z,20.20
2019-01-21T19:00:23.661Z,22.53
2019-01-21T19:02:51.404Z,26.23
2019-01-21T19:05:19.899Z,33.93
2019-01-21T19:07:47.874Z,33.27
2019-01-21T19:10:16.381Z,30.23
2019-01-21T19:12:44.381Z,23.50
2019-01-21T19:15:22.467Z,23.60
2019-01-21T19:17:50.420Z,20.50
2019-01-21T19:20:19.431Z,18.47
2019-01-21T19:22:47.145Z,19.53
2019-01-21T19:25:15.061Z,21.30
2019-01-21T19:27:42.768Z,21.67
2019-01-21T19:30:12.501Z,19.00
2019-01-21T19:32:41.007Z,23.13
2019-01-21T19:35:09.225Z,21.37
2019-01-21T19:37:37.259Z,20.60
2019-01-21T19:40:05.230Z,20.57
2019-01-21T19:42:33.172Z,20.43
2019-01-21T19:45:01.140Z,23.80
2019-01-21T19:47:29.317Z,25.10
2019-01-21T19:49:57.262Z,20.63
2019-01-21T19:52:25.257Z,21.13
2019-01-21T19:54:53.260Z,23.30
2019-01-21T19:57:21.467Z,21.00
2019-01-21T19:59:49.509Z,19.70
2019-01-21T20:02:17.457Z,20.80
2019-01-21T20:04:46.000Z,20.80
2019-01-21T20:07:14.289Z,24.60
2019-01-21T20:09:41.982Z,19.80
2019-01-21T20:12:09.924Z,20.00
2019-01-21T20:14:37.626Z,23.07
2019-01-21T20:17:05.575Z,20.40
2019-01-21T20:19:33.428Z,24.00
2019-01-21T20:22:07.312Z,23.40
2019-01-21T20:24:29.874Z,22.20
2019-01-21T20:26:57.842Z,21.07
2019-01-21T20:29:25.804Z,23.20
2019-01-21T20:31:53.754Z,24.23
2019-01-21T20:34:21.219Z,19.87
2019-01-21T20:36:49.191Z,25.20
2019-01-21T20:39:17.212Z,22.47
2019-01-21T20:41:45.187Z,23.67
2019-01-21T20:44:12.873Z,23.27
2019-01-21T20:46:40.606Z,26.67
2019-01-21T20:49:09.048Z,28.20
2019-01-21T20:51:37.000Z,24.53
2019-01-21T20:54:04.980Z,23.33
2019-01-21T20:56:32.727Z,24.97
2019-01-21T20:59:00.686Z,26.20
2019-01-21T21:01:28.365Z,25.77
2019-01-21T21:03:56.307Z,26.67
2019-01-21T21:06:24.933Z,26.00
2019-01-21T21:08:52.634Z,28.80
2019-01-21T21:11:21.158Z,24.77
2019-01-21T21:13:49.102Z,26.70
2019-01-21T21:16:16.789Z,27.67
2019-01-21T21:18:44.498Z,23.37
2019-01-21T21:21:12.486Z,30.57
2019-01-21T21:23:40.317Z,25.77
2019-01-21T21:26:07.976Z,27.50
2019-01-21T21:28:35.839Z,27.67
2019-01-21T21:31:03.551Z,25.60
2019-01-21T21:33:31.248Z,26.83
2019-01-21T21:35:59.547Z,24.40
2019-01-21T21:38:28.120Z,26.77
2019-01-21T21:40:56.085Z,38.60
2019-01-21T21:43:24.349Z,40.30
2019-01-21T21:45:52.350Z,23.27
2019-01-21T21:48:20.310Z,24.17
2019-01-21T21:50:48.629Z,21.23
2019-01-21T21:53:16.643Z,23.40
2019-01-21T21:55:44.362Z,22.57
2019-01-21T21:58:12.332Z,24.30
2019-01-21T22:00:40.299Z,23.27
2019-01-21T22:03:08.830Z,22.80
2019-01-21T22:05:36.695Z,20.67
2019-01-21T22:08:04.650Z,23.17
2019-01-21T22:10:32.587Z,25.57
2019-01-21T22:13:00.534Z,28.83
2019-01-21T22:15:28.458Z,24.07
2019-01-21T22:17:55.889Z,32.80
2019-01-21T22:20:24.334Z,25.87
2019-01-21T22:22:52.313Z,21.80
2019-01-21T22:25:20.661Z,23.13
2019-01-21T22:27:48.655Z,24.73
2019-01-21T22:30:20.980Z,25.40
2019-01-21T22:32:48.898Z,24.90
2019-01-21T22:35:17.460Z,26.67
2019-01-21T22:37:45.421Z,29.30
2019-01-21T22:40:14.362Z,28.97
2019-01-21T22:42:42.076Z,26.00
2019-01-21T22:45:10.437Z,25.10
2019-01-21T22:47:39.009Z,23.83
2019-01-21T22:50:07.872Z,22.17
2019-01-21T22:52:41.682Z,26.40
2019-01-21T22:55:04.087Z,28.03
2019-01-21T22:57:32.088Z,26.70
2019-01-21T22:59:59.782Z,25.37
2019-01-21T23:02:28.362Z,27.70
2019-01-21T23:04:56.470Z,26.13
2019-01-21T23:07:24.425Z,22.57
2019-01-21T23:09:52.094Z,26.20
2019-01-21T23:12:20.077Z,28.53
2019-01-21T23:14:48.044Z,26.43
2019-01-21T23:17:16.018Z,27.70
2019-01-21T23:19:43.740Z,27.97
2019-01-21T23:22:11.693Z,28.90
2019-01-21T23:24:39.638Z,26.33
2019-01-21T23:27:08.153Z,26.17
2019-01-21T23:29:36.098Z,28.17
2019-01-21T23:32:04.085Z,31.77
2019-01-21T23:34:32.101Z,30.70
2019-01-21T23:37:00.072Z,29.83
2019-01-21T23:39:28.022Z,28.40
2019-01-21T23:41:56.582Z,28.17
2019-01-21T23:44:25.106Z,28.27
2019-01-21T23:46:52.829Z,30.43
2019-01-21T23:49:21.142Z,23.07
2019-01-21T23:51:49.067Z,29.03
2019-01-21T23:54:16.778Z,26.73
2019-01-21T23:56:44.741Z,29.30
2019-01-21T23:59:18.924Z,25.93
